createdAt,value
2018-09-24T00:00:52.896Z,102718.63
2018-09-24T00:03:22.049Z,102732.48
2018-09-24T00:05:51.172Z,102741.91
2018-09-24T00:08:20.316Z,102742.41
2018-09-24T00:10:49.424Z,102742.88
2018-09-24T00:13:18.516Z,102747.28
2018-09-24T00:15:47.723Z,102756.80
2018-09-24T00:18:17.020Z,102759.90
2018-09-24T00:20:46.189Z,102764.00
2018-09-24T00:23:15.325Z,102763.09
2018-09-24T00:25:44.512Z,102772.51
2018-09-24T00:28:13.627Z,102777.45
2018-09-24T00:30:42.883Z,102785.96
2018-09-24T00:33:11.995Z,102784.62
2018-09-24T00:35:41.109Z,102790.91
2018-09-24T00:38:10.236Z,102799.02
2018-09-24T00:40:39.411Z,102799.86
2018-09-24T00:43:08.667Z,102808.84
2018-09-24T00:45:37.875Z,102810.18
2018-09-24T00:48:07.007Z,102814.22
2018-09-24T00:50:36.249Z,102816.50
2018-09-24T00:53:05.397Z,102816.91
2018-09-24T00:55:34.493Z,102821.41
2018-09-24T00:58:03.611Z,102825.92
2018-09-24T01:00:32.727Z,102829.55
2018-09-24T01:03:01.805Z,102836.71
2018-09-24T01:05:30.983Z,102834.93
2018-09-24T01:08:00.119Z,102843.87
2018-09-24T01:10:29.279Z,102838.50
2018-09-24T01:12:58.359Z,102838.97
2018-09-24T01:15:27.504Z,102841.19
2018-09-24T01:17:56.595Z,102847.91
2018-09-24T01:20:25.683Z,102852.86
2018-09-24T01:22:54.769Z,102855.55
2018-09-24T01:25:23.957Z,102857.33
2018-09-24T01:27:53.035Z,102856.89
2018-09-24T01:30:22.279Z,102859.15
2018-09-24T01:32:51.423Z,102862.72
2018-09-24T01:35:20.527Z,102862.27
2018-09-24T01:37:49.627Z,102860.05
2018-09-24T01:40:18.799Z,102863.19
2018-09-24T01:42:47.925Z,102857.36
2018-09-24T01:45:17.006Z,102860.52
2018-09-24T01:47:46.127Z,102858.77
2018-09-24T01:50:15.254Z,102874.45
2018-09-24T01:52:44.421Z,102881.17
2018-09-24T01:55:13.503Z,102882.98
2018-09-24T01:57:42.595Z,102884.74
2018-09-24T02:00:11.683Z,102881.58
2018-09-24T02:02:40.760Z,102890.59
2018-09-24T02:05:15.602Z,102886.12
2018-09-24T02:07:44.835Z,102895.09
2018-09-24T02:10:13.917Z,102895.53
2018-09-24T02:12:43.049Z,102895.53
2018-09-24T02:15:12.335Z,102898.22
2018-09-24T02:17:41.439Z,102906.77
2018-09-24T02:20:10.631Z,102913.48
2018-09-24T02:22:39.741Z,102918.47
2018-09-24T02:25:08.815Z,102910.42
2018-09-24T02:27:37.927Z,102922.53
2018-09-24T02:30:07.428Z,102913.98
2018-09-24T02:32:36.605Z,102919.43
2018-09-24T02:35:05.717Z,102906.41
2018-09-24T02:37:34.807Z,102921.21
2018-09-24T02:40:03.980Z,102918.98
2018-09-24T02:42:33.079Z,102920.34
2018-09-24T02:45:02.157Z,102930.63
2018-09-24T02:47:33.375Z,102937.36
2018-09-24T02:50:03.511Z,102942.33
2018-09-24T02:52:33.027Z,102954.03
2018-09-24T02:55:02.133Z,102957.16
2018-09-24T02:57:31.231Z,102960.31
2018-09-24T03:00:00.343Z,102961.72
2018-09-24T03:02:29.431Z,102964.41
2018-09-24T03:04:58.533Z,102961.25
2018-09-24T03:07:27.627Z,102969.78
2018-09-24T03:09:56.708Z,102966.66
2018-09-24T03:12:25.820Z,102970.22
2018-09-24T03:14:54.896Z,102969.81
2018-09-24T03:17:24.015Z,102974.26
2018-09-24T03:19:53.119Z,102975.19
2018-09-24T03:22:24.469Z,102978.77
2018-09-24T03:24:54.531Z,102979.64
2018-09-24T03:27:24.451Z,102981.92
2018-09-24T03:29:53.557Z,102977.01
2018-09-24T03:32:22.887Z,102991.75
2018-09-24T03:34:52.076Z,102989.05
2018-09-24T03:37:22.808Z,102990.87
2018-09-24T03:39:52.217Z,102999.37
2018-09-24T03:42:21.291Z,103004.32
2018-09-24T03:44:50.536Z,103016.42
2018-09-24T03:47:19.755Z,103029.87
2018-09-24T03:49:48.932Z,103048.30
2018-09-24T03:52:18.179Z,103054.58
2018-09-24T03:54:47.333Z,103037.56
2018-09-24T03:57:16.560Z,103033.06
2018-09-24T03:59:45.719Z,103048.33
2018-09-24T04:02:14.903Z,103039.84
2018-09-24T04:04:49.348Z,103042.53
2018-09-24T04:07:23.783Z,103043.00
2018-09-24T04:09:58.448Z,103031.33
2018-09-24T04:12:33.415Z,103022.77
2018-09-24T04:15:07.717Z,103023.73
2018-09-24T04:17:42.192Z,103030.43
2018-09-24T04:20:16.580Z,103034.47
2018-09-24T04:22:50.967Z,103031.77
2018-09-24T04:25:25.463Z,103047.47
2018-09-24T04:27:59.868Z,103053.77
2018-09-24T04:30:34.342Z,103046.19
2018-09-24T04:33:08.840Z,103059.16
2018-09-24T04:35:43.168Z,103058.76
2018-09-24T04:38:17.707Z,103059.19
2018-09-24T04:40:52.244Z,103069.08
2018-09-24T04:43:26.616Z,103075.80
2018-09-24T04:46:01.036Z,103080.71
2018-09-24T04:48:35.599Z,103071.30
2018-09-24T04:51:10.046Z,103073.11
2018-09-24T04:53:44.602Z,103077.20
2018-09-24T04:56:19.642Z,103090.19
2018-09-24T04:58:54.011Z,103083.92
2018-09-24T05:01:28.364Z,103080.32
2018-09-24T05:04:02.784Z,103081.23
2018-09-24T05:06:37.120Z,103077.20
2018-09-24T05:09:13.231Z,103080.77
2018-09-24T05:11:47.726Z,103080.32
2018-09-24T05:14:22.107Z,103085.27
2018-09-24T05:16:56.492Z,103084.36
2018-09-24T05:19:31.444Z,103085.27
2018-09-24T05:22:05.926Z,103085.70
2018-09-24T05:24:40.584Z,103082.61
2018-09-24T05:27:14.956Z,103083.48
2018-09-24T05:29:49.523Z,103092.02
2018-09-24T05:32:23.984Z,103089.33
2018-09-24T05:34:58.521Z,103094.24
2018-09-24T05:37:33.107Z,103096.93
2018-09-24T05:40:07.521Z,103109.50
2018-09-24T05:42:42.320Z,103106.34
2018-09-24T05:45:16.648Z,103118.94
2018-09-24T05:47:51.226Z,103121.20
2018-09-24T05:50:25.803Z,103126.58
2018-09-24T05:53:00.227Z,103135.08
2018-09-24T05:55:41.336Z,103135.08
2018-09-24T05:58:16.158Z,103132.39
2018-09-24T06:00:50.664Z,103134.17
2018-09-24T06:03:25.013Z,103152.08
2018-09-24T06:05:59.481Z,103164.63
2018-09-24T06:08:33.916Z,103181.66
2018-09-24T06:11:08.360Z,103180.32
2018-09-24T06:13:42.709Z,103182.52
2018-09-24T06:16:17.496Z,103181.57
2018-09-24T06:18:51.846Z,103178.02
2018-09-24T06:21:26.220Z,103182.06
2018-09-24T06:24:00.761Z,103182.06
2018-09-24T06:26:35.106Z,103184.28
2018-09-24T06:32:04.248Z,103190.18
2018-09-24T06:34:38.630Z,103199.13
2018-09-24T06:37:13.068Z,103201.84
2018-09-24T06:39:47.448Z,103201.42
2018-09-24T06:42:22.036Z,103200.94
2018-09-24T06:44:56.524Z,103192.74
2018-09-24T06:47:30.872Z,103199.91
2018-09-24T06:50:05.236Z,103204.34
2018-09-24T06:52:39.644Z,103212.80
2018-09-24T06:55:14.066Z,103215.91
2018-09-24T06:57:48.481Z,103220.41
2018-09-24T07:00:22.953Z,103219.06
2018-09-24T07:02:57.349Z,103232.45
2018-09-24T07:05:31.825Z,103248.55
2018-09-24T07:08:06.397Z,103248.49
2018-09-24T07:10:40.940Z,103242.21
2018-09-24T07:13:15.433Z,103243.11
2018-09-24T07:15:50.518Z,103255.27
2018-09-24T07:18:25.104Z,103262.91
2018-09-24T07:20:59.518Z,103252.14
2018-09-24T07:23:34.153Z,103252.59
2018-09-24T07:26:08.611Z,103246.75
2018-09-24T07:28:43.221Z,103253.92
2018-09-24T07:31:17.681Z,103252.53
2018-09-24T07:33:52.284Z,103254.34
2018-09-24T07:36:26.697Z,103255.27
2018-09-24T07:39:01.307Z,103260.66
2018-09-24T07:41:35.846Z,103278.97
2018-09-24T07:44:10.267Z,103280.71
2018-09-24T07:46:44.636Z,103280.69
2018-09-24T07:49:19.084Z,103284.24
2018-09-24T07:51:53.587Z,103286.05
2018-09-24T07:54:28.164Z,103292.73
2018-09-24T07:57:02.729Z,103293.20
2018-09-24T07:59:37.185Z,103293.66
2018-09-24T08:02:11.771Z,103290.50
2018-09-24T08:04:46.220Z,103291.38
2018-09-24T08:07:20.684Z,103300.31
2018-09-24T08:09:55.358Z,103304.36
2018-09-24T08:12:29.669Z,103307.46
2018-09-24T08:15:04.201Z,103312.36
2018-09-24T08:17:38.711Z,103309.25
2018-09-24T08:20:13.134Z,103313.23
2018-09-24T08:22:47.495Z,103323.92
2018-09-24T08:25:21.874Z,103335.48
2018-09-24T08:27:56.438Z,103335.33
2018-09-24T08:30:30.825Z,103337.93
2018-09-24T08:33:05.190Z,103348.70
2018-09-24T08:35:39.651Z,103353.20
2018-09-24T08:38:14.090Z,103351.84
2018-09-24T08:40:48.770Z,103362.61
2018-09-24T08:43:23.172Z,103367.55
2018-09-24T08:45:57.530Z,103374.23
2018-09-24T08:48:31.880Z,103378.23
2018-09-24T08:51:06.252Z,103397.05
2018-09-24T08:53:40.721Z,103392.55
2018-09-24T08:56:15.235Z,103392.08
2018-09-24T08:58:49.582Z,103402.44
2018-09-24T09:01:24.183Z,103391.22
2018-09-24T09:03:58.571Z,103395.71
2018-09-24T09:06:32.927Z,103387.16
2018-09-24T09:09:15.044Z,103383.98
2018-09-24T09:11:49.646Z,103387.56
2018-09-24T09:14:24.173Z,103394.68
2018-09-24T09:16:58.492Z,103395.17
2018-09-24T09:19:32.902Z,103397.39
2018-09-24T09:22:07.367Z,103390.66
2018-09-24T09:24:41.811Z,103397.86
2018-09-24T09:27:16.157Z,103401.34
2018-09-24T09:29:50.546Z,103412.95
2018-09-24T09:32:24.981Z,103414.64
2018-09-24T09:34:59.364Z,103413.25
2018-09-24T09:37:33.860Z,103420.42
2018-09-24T09:40:08.263Z,103420.03
2018-09-24T09:42:42.554Z,103416.84
2018-09-24T09:45:16.967Z,103411.91
2018-09-24T09:47:51.382Z,103410.09
2018-09-24T09:50:25.959Z,103423.09
2018-09-24T09:53:00.483Z,103409.16
2018-09-24T09:55:34.769Z,103408.19
2018-09-24T09:58:09.236Z,103419.77
2018-09-24T10:00:43.678Z,103417.44
2018-09-24T10:03:18.095Z,103416.58
2018-09-24T10:05:52.620Z,103419.65
2018-09-24T10:08:27.105Z,103423.20
2018-09-24T10:11:01.471Z,103418.30
2018-09-24T10:13:36.011Z,103430.42
2018-09-24T10:16:10.479Z,103427.67
2018-09-24T10:18:44.902Z,103428.63
2018-09-24T10:21:19.322Z,103442.50
2018-09-24T10:23:53.721Z,103439.80
2018-09-24T10:26:28.156Z,103440.72
2018-09-24T10:29:02.706Z,103447.86
2018-09-24T10:31:37.248Z,103449.58
2018-09-24T10:34:11.837Z,103454.97
2018-09-24T10:36:46.354Z,103466.58
2018-09-24T10:39:20.892Z,103461.27
2018-09-24T10:41:55.282Z,103462.20
2018-09-24T10:44:29.940Z,103471.18
2018-09-24T10:47:04.415Z,103490.02
2018-09-24T10:49:38.896Z,103476.63
2018-09-24T10:52:13.278Z,103478.87
2018-09-24T10:54:47.630Z,103471.72
2018-09-24T10:57:22.140Z,103473.55
2018-09-24T10:59:56.500Z,103476.64
2018-09-24T11:02:30.852Z,103478.08
2018-09-24T11:05:05.488Z,103475.39
2018-09-24T11:07:39.931Z,103480.31
2018-09-24T11:10:14.375Z,103479.02
2018-09-24T11:12:48.993Z,103485.30
2018-09-24T11:15:23.457Z,103479.91
2018-09-24T11:17:57.936Z,103488.91
2018-09-24T11:20:32.535Z,103485.82
2018-09-24T11:23:06.828Z,103492.58
2018-09-24T11:25:41.248Z,103493.45
2018-09-24T11:28:15.657Z,103494.39
2018-09-24T11:30:50.060Z,103492.11
2018-09-24T11:33:24.639Z,103485.38
2018-09-24T11:35:59.005Z,103488.46
2018-09-24T11:38:33.467Z,103497.95
2018-09-24T11:41:07.997Z,103504.68
2018-09-24T11:43:42.395Z,103496.62
2018-09-24T11:46:17.007Z,103503.35
2018-09-24T11:48:51.448Z,103503.81
2018-09-24T11:51:25.876Z,103505.63
2018-09-24T11:54:00.301Z,103502.02
2018-09-24T11:56:34.789Z,103503.38
2018-09-24T11:59:09.132Z,103513.25
2018-09-24T12:01:43.603Z,103507.86
2018-09-24T12:04:18.147Z,103506.52
2018-09-24T12:06:52.627Z,103498.90
2018-09-24T12:09:27.271Z,103500.25
2018-09-24T12:12:01.712Z,103467.92
2018-09-24T12:14:36.064Z,103506.14
2018-09-24T12:17:10.518Z,103498.11
2018-09-24T12:19:45.035Z,103493.62
2018-09-24T12:22:19.551Z,103502.58
2018-09-24T12:24:53.976Z,103502.55
2018-09-24T12:27:28.289Z,103494.06
2018-09-24T12:30:02.654Z,103497.59
2018-09-24T12:32:37.075Z,103498.03
2018-09-24T12:35:11.384Z,103497.59
2018-09-24T12:37:45.743Z,103496.70
2018-09-24T12:40:20.322Z,103498.52
2018-09-24T12:42:54.779Z,103498.53
2018-09-24T12:45:29.219Z,103508.97
2018-09-24T12:48:03.658Z,103503.11
2018-09-24T12:50:38.284Z,103513.02
2018-09-24T12:53:12.678Z,103494.19
2018-09-24T12:55:46.993Z,103496.40
2018-09-24T12:58:21.289Z,103507.22
2018-09-24T13:00:55.664Z,103491.55
2018-09-24T13:03:30.040Z,103507.78
2018-09-24T13:06:04.598Z,103510.81
2018-09-24T13:08:39.115Z,103511.61
2018-09-24T13:11:13.579Z,103526.39
2018-09-24T13:13:47.953Z,103523.73
2018-09-24T13:16:22.294Z,103516.44
2018-09-24T13:18:56.793Z,103524.58
2018-09-24T13:21:31.270Z,103532.59
2018-09-24T13:24:05.769Z,103541.09
2018-09-24T13:26:40.171Z,103535.22
2018-09-24T13:29:14.626Z,103540.14
2018-09-24T13:31:49.130Z,103532.98
2018-09-24T13:34:23.640Z,103536.70
2018-09-24T13:36:58.163Z,103531.78
2018-09-24T13:39:32.778Z,103541.20
2018-09-24T13:42:07.312Z,103535.35
2018-09-24T13:44:41.644Z,103532.19
2018-09-24T13:47:16.053Z,103533.52
2018-09-24T13:49:50.473Z,103534.87
2018-09-24T13:52:25.173Z,103539.80
2018-09-24T13:54:59.783Z,103544.33
2018-09-24T13:57:34.240Z,103527.69
2018-09-24T14:00:08.628Z,103518.33
2018-09-24T14:02:43.191Z,103545.74
2018-09-24T14:05:17.515Z,103549.78
2018-09-24T14:07:52.005Z,103542.16
2018-09-24T14:10:26.445Z,103536.77
2018-09-24T14:13:01.026Z,103540.80
2018-09-24T14:15:35.470Z,103530.03
2018-09-24T14:18:10.081Z,103529.08
2018-09-24T14:20:44.572Z,103535.81
2018-09-24T14:23:19.024Z,103532.73
2018-09-24T14:25:53.344Z,103535.85
2018-09-24T14:28:27.712Z,103534.50
2018-09-24T14:31:02.011Z,103533.14
2018-09-24T14:33:36.343Z,103527.75
2018-09-24T14:36:10.856Z,103544.86
2018-09-24T14:38:45.400Z,103548.02
2018-09-24T14:41:19.800Z,103544.00
2018-09-24T14:43:54.125Z,103543.52
2018-09-24T14:46:28.652Z,103536.77
2018-09-24T14:49:03.020Z,103536.78
2018-09-24T14:51:37.363Z,103534.07
2018-09-24T14:54:11.813Z,103527.75
2018-09-24T14:56:46.229Z,103539.89
2018-09-24T14:59:20.519Z,103537.68
2018-09-24T15:01:54.998Z,103530.95
2018-09-24T15:04:29.496Z,103532.34
2018-09-24T15:07:03.887Z,103528.72
2018-09-24T15:09:38.203Z,103533.23
2018-09-24T15:12:12.793Z,103544.00
2018-09-24T15:14:47.277Z,103539.89
2018-09-24T15:17:35.851Z,103544.87
2018-09-24T15:20:10.267Z,103546.20
2018-09-24T15:22:44.861Z,103544.41
2018-09-24T15:25:19.403Z,103547.56
2018-09-24T15:27:53.919Z,103542.59
2018-09-24T15:30:28.557Z,103541.69
2018-09-24T15:33:03.083Z,103538.53
2018-09-24T15:35:37.427Z,103542.98
2018-09-24T15:38:12.021Z,103542.09
2018-09-24T15:40:47.585Z,103543.84
2018-09-24T15:43:22.083Z,103541.16
2018-09-24T15:45:56.435Z,103539.34
2018-09-24T15:48:31.233Z,103544.24
2018-09-24T15:51:05.724Z,103551.42
2018-09-24T15:53:40.080Z,103534.35
2018-09-24T15:56:14.709Z,103541.09
2018-09-24T15:58:49.151Z,103535.27
2018-09-24T16:01:23.547Z,103542.02
2018-09-24T16:03:58.059Z,103547.39
2018-09-24T16:06:32.605Z,103549.16
2018-09-24T16:09:07.286Z,103548.75
2018-09-24T16:11:41.855Z,103547.41
2018-09-24T16:14:16.275Z,103548.73
2018-09-24T16:16:50.594Z,103555.91
2018-09-24T16:19:25.131Z,103554.07
2018-09-24T16:21:59.511Z,103555.91
2018-09-24T16:24:33.949Z,103553.20
2018-09-24T16:27:08.355Z,103552.26
2018-09-24T16:29:42.899Z,103548.28
2018-09-24T16:32:17.289Z,103556.81
2018-09-24T16:34:51.751Z,103555.48
2018-09-24T16:37:26.199Z,103555.95
2018-09-24T16:40:00.689Z,103553.73
2018-09-24T16:42:35.053Z,103554.12
2018-09-24T16:45:09.668Z,103556.81
2018-09-24T16:47:44.007Z,103554.07
2018-09-24T16:50:18.427Z,103557.70
2018-09-24T16:52:52.863Z,103557.23
2018-09-24T16:55:27.299Z,103554.54
2018-09-24T16:58:01.766Z,103558.95
2018-09-24T17:00:36.346Z,103553.59
2018-09-24T17:03:10.890Z,103556.75
2018-09-24T17:05:45.443Z,103560.33
2018-09-24T17:08:19.961Z,103554.92
2018-09-24T17:10:54.311Z,103561.25
2018-09-24T17:13:28.757Z,103563.48
2018-09-24T17:16:03.177Z,103563.48
2018-09-24T17:18:37.711Z,103563.50
2018-09-24T17:21:12.279Z,103565.23
2018-09-24T17:23:46.776Z,103570.56
2018-09-24T17:26:21.155Z,103571.90
2018-09-24T17:28:55.711Z,103566.92
2018-09-24T17:31:30.118Z,103572.31
2018-09-24T17:34:04.653Z,103567.84
2018-09-24T17:36:39.020Z,103570.95
2018-09-24T17:39:14.242Z,103571.39
2018-09-24T17:41:48.676Z,103568.18
2018-09-24T17:44:22.991Z,103570.06
2018-09-24T17:46:57.407Z,103576.34
2018-09-24T17:49:31.948Z,103576.35
2018-09-24T17:52:06.423Z,103575.92
2018-09-24T17:54:40.937Z,103580.86
2018-09-24T17:57:15.461Z,103593.44
2018-09-24T17:59:49.855Z,103597.91
2018-09-24T18:02:24.502Z,103596.55
2018-09-24T18:04:58.819Z,103600.60
2018-09-24T18:07:33.289Z,103597.48
2018-09-24T18:10:07.663Z,103603.34
2018-09-24T18:12:42.080Z,103604.30
2018-09-24T18:15:16.601Z,103604.78
2018-09-24T18:17:51.203Z,103607.88
2018-09-24T18:20:26.128Z,103610.15
2018-09-24T18:23:00.579Z,103608.81
2018-09-24T18:25:35.207Z,103614.73
2018-09-24T18:28:09.576Z,103613.47
2018-09-24T18:30:44.041Z,103612.61
2018-09-24T18:33:18.494Z,103618.07
2018-09-24T18:35:52.856Z,103619.00
2018-09-24T18:38:27.337Z,103620.38
2018-09-24T18:41:01.706Z,103615.50
2018-09-24T18:43:36.460Z,103615.52
2018-09-24T18:46:10.998Z,103614.19
2018-09-24T18:48:45.311Z,103618.73
2018-09-24T18:51:19.717Z,103615.19
2018-09-24T18:53:54.071Z,103617.00
2018-09-24T18:56:28.443Z,103621.52
2018-09-24T18:59:02.799Z,103626.50
2018-09-24T19:01:37.311Z,103625.63
2018-09-24T19:04:11.895Z,103637.73
2018-09-24T19:06:46.607Z,103637.73
2018-09-24T19:09:21.088Z,103641.79
2018-09-24T19:11:55.316Z,103646.77
2018-09-24T19:14:29.812Z,103646.35
2018-09-24T19:17:04.116Z,103649.51
2018-09-24T19:19:38.500Z,103652.63
2018-09-24T19:22:12.848Z,103652.23
2018-09-24T19:24:47.188Z,103651.81
2018-09-24T19:27:21.490Z,103655.84
2018-09-24T19:29:56.085Z,103656.31
2018-09-24T19:32:30.540Z,103653.16
2018-09-24T19:35:04.928Z,103656.78
2018-09-24T19:37:39.429Z,103658.55
2018-09-24T19:40:13.908Z,103651.39
2018-09-24T19:42:48.448Z,103662.17
2018-09-24T19:45:23.069Z,103662.17
2018-09-24T19:47:57.608Z,103665.79
2018-09-24T19:50:31.948Z,103668.49
2018-09-24T19:53:06.329Z,103665.78
2018-09-24T19:55:40.732Z,103669.81
2018-09-24T19:58:15.520Z,103668.95
2018-09-24T20:00:49.925Z,103672.06
2018-09-24T20:03:24.548Z,103680.61
2018-09-24T20:05:58.911Z,103680.16
2018-09-24T20:08:33.468Z,103675.69
2018-09-24T20:11:07.884Z,103684.19
2018-09-24T20:13:42.484Z,103681.95
2018-09-24T20:16:16.872Z,103685.11
2018-09-24T20:18:51.232Z,103682.84
2018-09-24T20:21:25.624Z,103676.59
2018-09-24T20:23:59.974Z,103677.02
2018-09-24T20:26:34.413Z,103685.09
2018-09-24T20:29:08.856Z,103692.75
2018-09-24T20:31:43.265Z,103690.98
2018-09-24T20:34:17.682Z,103693.69
2018-09-24T20:36:52.230Z,103696.84
2018-09-24T20:39:26.647Z,103699.08
2018-09-24T20:42:01.249Z,103699.08
2018-09-24T20:44:35.652Z,103696.44
2018-09-24T20:47:09.974Z,103699.08
2018-09-24T20:49:44.353Z,103702.28
2018-09-24T20:52:18.713Z,103699.59
2018-09-24T20:54:53.119Z,103698.72
2018-09-24T20:57:35.398Z,103704.99
2018-09-24T21:00:10.324Z,103707.25
2018-09-24T21:02:44.665Z,103702.77
2018-09-24T21:05:19.216Z,103709.95
2018-09-24T21:07:53.776Z,103702.81
2018-09-24T21:10:28.144Z,103709.53
2018-09-24T21:13:02.574Z,103705.50
2018-09-24T21:15:37.084Z,103717.61
2018-09-24T21:18:11.531Z,103712.23
2018-09-24T21:20:46.143Z,103714.92
2018-09-24T21:23:20.572Z,103727.96
2018-09-24T21:25:55.214Z,103740.08
2018-09-24T21:28:29.700Z,103741.85
2018-09-24T21:31:04.077Z,103738.73
2018-09-24T21:33:38.492Z,103740.55
2018-09-24T21:36:12.968Z,103742.36
2018-09-24T21:38:47.592Z,103740.55
2018-09-24T21:41:22.168Z,103744.59
2018-09-24T21:43:56.661Z,103747.28
2018-09-24T21:46:31.127Z,103749.55
2018-09-24T21:49:05.720Z,103748.20
2018-09-24T21:51:40.131Z,103747.29
2018-09-24T21:54:14.544Z,103740.56
2018-09-24T21:56:49.190Z,103745.94
2018-09-24T21:59:23.696Z,103751.79
2018-09-24T22:01:58.039Z,103745.10
2018-09-24T22:04:32.324Z,103744.19
2018-09-24T22:07:06.860Z,103744.64
2018-09-24T22:09:41.394Z,103758.09
2018-09-24T22:12:15.889Z,103755.41
2018-09-24T22:14:50.241Z,103762.59
2018-09-24T22:17:24.662Z,103760.33
2018-09-24T22:19:59.042Z,103753.60
2018-09-24T22:22:33.664Z,103759.48
2018-09-24T22:25:08.092Z,103759.45
2018-09-24T22:27:42.558Z,103760.38
2018-09-24T22:30:16.960Z,103764.41
2018-09-24T22:32:51.421Z,103763.53
2018-09-24T22:35:25.880Z,103772.95
2018-09-24T22:38:00.172Z,103776.52
2018-09-24T22:40:34.617Z,103768.45
2018-09-24T22:43:09.112Z,103771.14
2018-09-24T22:45:43.465Z,103759.95
2018-09-24T22:48:17.820Z,103757.27
2018-09-24T22:50:52.189Z,103753.23
2018-09-24T22:53:26.694Z,103757.73
2018-09-24T22:56:01.015Z,103760.42
2018-09-24T22:58:35.356Z,103762.19
2018-09-24T23:01:09.972Z,103759.08
2018-09-24T23:03:44.421Z,103766.69
2018-09-24T23:06:18.707Z,103756.85
2018-09-24T23:08:53.144Z,103755.05
2018-09-24T23:11:27.589Z,103759.08
2018-09-24T23:14:02.119Z,103756.39
2018-09-24T23:16:36.630Z,103757.74
2018-09-24T23:19:11.074Z,103763.13
2018-09-24T23:21:45.426Z,103761.35
2018-09-24T23:24:19.940Z,103757.74
2018-09-24T23:26:54.340Z,103751.48
2018-09-24T23:29:28.703Z,103752.83
2018-09-24T23:32:03.080Z,103753.29
2018-09-24T23:34:37.567Z,103764.05
2018-09-24T23:37:11.935Z,103760.02
2018-09-24T23:39:46.220Z,103760.02
2018-09-24T23:42:20.761Z,103758.67
2018-09-24T23:44:55.170Z,103760.94
2018-09-24T23:47:29.572Z,103761.37
2018-09-24T23:50:03.879Z,103758.72
2018-09-24T23:52:38.359Z,103760.02
2018-09-24T23:55:12.740Z,103754.22
2018-09-24T23:57:47.286Z,103755.14
